createdAt,value
2023-11-28T00:01:05.098Z,-0.6
2023-11-28T00:04:05.239Z,-0.9
2023-11-28T00:07:06.180Z,-1.0
2023-11-28T00:10:04.719Z,-0.8
2023-11-28T00:13:04.653Z,-0.8
2023-11-28T00:16:06.650Z,-0.6
2023-11-28T00:19:05.449Z,-0.6
2023-11-28T00:22:05.617Z,-0.8
2023-11-28T00:25:04.774Z,-0.9
2023-11-28T00:28:04.813Z,-0.6
2023-11-28T00:31:04.943Z,-0.7
2023-11-28T00:34:04.883Z,-0.4
2023-11-28T00:37:04.690Z,-0.5
2023-11-28T00:40:04.699Z,-0.7
2023-11-28T00:43:04.783Z,-0.7
2023-11-28T00:46:04.784Z,-0.7
2023-11-28T00:49:04.992Z,-0.6
2023-11-28T00:52:04.683Z,-0.8
2023-11-28T00:55:04.649Z,-0.8
2023-11-28T00:58:04.648Z,-1.1
2023-11-28T01:01:04.848Z,-1.0
2023-11-28T01:04:05.469Z,-1.1
2023-11-28T01:07:04.696Z,-1.2
2023-11-28T01:10:04.644Z,-1.1
2023-11-28T01:13:04.658Z,-0.9
2023-11-28T01:16:05.008Z,-1.0
2023-11-28T01:19:04.764Z,-1.3
2023-11-28T01:22:04.630Z,-1.3
2023-11-28T01:25:04.791Z,-1.3
2023-11-28T01:28:04.674Z,-1.3
2023-11-28T01:31:05.041Z,-1.2
2023-11-28T01:34:04.769Z,-1.0
2023-11-28T01:37:04.739Z,-1.2
2023-11-28T01:40:05.491Z,-1.0
2023-11-28T01:43:04.754Z,-1.4
2023-11-28T01:46:04.689Z,-1.4
2023-11-28T01:49:04.919Z,-1.5
2023-11-28T01:52:04.706Z,-1.4
2023-11-28T01:55:04.762Z,-1.4
2023-11-28T01:58:04.722Z,-1.2
2023-11-28T02:01:04.853Z,-1.3
2023-11-28T02:04:05.399Z,-1.3
2023-11-28T02:07:04.700Z,-1.3
2023-11-28T02:10:04.757Z,-1.3
2023-11-28T02:13:05.035Z,-1.4
2023-11-28T02:16:04.895Z,-1.5
2023-11-28T02:19:04.790Z,-1.5
2023-11-28T02:22:04.664Z,-1.4
2023-11-28T02:25:04.722Z,-1.5
2023-11-28T02:28:04.744Z,-1.4
2023-11-28T02:31:04.804Z,-1.5
2023-11-28T02:34:04.782Z,-1.7
2023-11-28T02:37:04.748Z,-1.5
2023-11-28T02:40:04.712Z,-1.8
2023-11-28T02:43:04.688Z,-1.8
2023-11-28T02:46:04.783Z,-1.6
2023-11-28T02:49:04.746Z,-1.8
2023-11-28T02:52:04.717Z,-2.0
2023-11-28T02:55:04.703Z,-2.0
2023-11-28T02:58:04.676Z,-1.8
2023-11-28T03:01:04.891Z,-2.2
2023-11-28T03:04:05.142Z,-2.2
2023-11-28T03:07:04.751Z,-2.1
2023-11-28T03:10:04.729Z,-2.1
2023-11-28T03:13:04.707Z,-2.1
2023-11-28T03:16:04.813Z,-2.1
2023-11-28T03:19:04.897Z,-2.4
2023-11-28T03:22:04.735Z,-2.5
2023-11-28T03:25:04.687Z,-2.6
2023-11-28T03:28:04.654Z,-2.5
2023-11-28T03:31:04.880Z,-2.6
2023-11-28T03:34:04.777Z,-2.8
2023-11-28T03:37:04.756Z,-3.1
2023-11-28T03:40:04.738Z,-3.0
2023-11-28T03:43:04.719Z,-3.3
2023-11-28T03:46:05.105Z,-3.7
2023-11-28T03:49:05.012Z,-3.5
2023-11-28T03:52:04.899Z,-3.3
2023-11-28T03:55:04.723Z,-3.5
2023-11-28T03:58:04.719Z,-3.6
2023-11-28T04:01:05.141Z,-3.6
2023-11-28T04:04:05.121Z,-3.6
2023-11-28T04:07:04.646Z,-3.6
2023-11-28T04:10:04.688Z,-3.5
2023-11-28T04:13:04.706Z,-3.8
2023-11-28T04:16:04.683Z,-3.5
2023-11-28T04:19:05.730Z,-3.7
2023-11-28T04:22:04.703Z,-3.8
2023-11-28T04:25:04.794Z,-3.9
2023-11-28T04:28:04.722Z,-3.7
2023-11-28T04:31:05.285Z,-3.5
2023-11-28T04:34:05.176Z,-3.9
2023-11-28T04:37:04.905Z,-3.9
2023-11-28T04:40:04.813Z,-4.0
2023-11-28T04:43:04.723Z,-4.0
2023-11-28T04:46:04.756Z,-4.0
2023-11-28T04:49:04.846Z,-3.7
2023-11-28T04:52:04.757Z,-3.8
2023-11-28T04:55:04.793Z,-3.7
2023-11-28T04:58:04.716Z,-3.6
2023-11-28T05:01:04.818Z,-3.8
2023-11-28T05:04:05.445Z,-3.6
2023-11-28T05:07:04.720Z,-3.6
2023-11-28T05:10:04.661Z,-3.6
2023-11-28T05:13:04.746Z,-3.6
2023-11-28T05:16:04.846Z,-3.4
2023-11-28T05:19:05.369Z,-3.5
2023-11-28T05:22:07.048Z,-3.6
2023-11-28T05:25:04.731Z,-3.3
2023-11-28T05:28:06.656Z,-3.4
2023-11-28T05:31:04.877Z,-3.5
2023-11-28T05:34:04.838Z,-3.2
2023-11-28T05:37:04.750Z,-3.3
2023-11-28T05:40:06.019Z,-3.4
2023-11-28T05:43:04.749Z,-3.3
2023-11-28T05:46:04.895Z,-3.3
2023-11-28T05:49:04.853Z,-3.3
2023-11-28T05:52:04.687Z,-3.1
2023-11-28T05:55:05.333Z,-3.3
2023-11-28T05:58:04.775Z,-3.2
2023-11-28T06:01:07.345Z,-3.3
2023-11-28T06:04:05.261Z,-3.2
2023-11-28T06:07:04.757Z,-3.2
2023-11-28T06:10:04.765Z,-3.2
2023-11-28T06:13:07.900Z,-3.1
2023-11-28T06:16:04.817Z,-3.1
2023-11-28T06:19:04.864Z,-2.9
2023-11-28T06:22:04.755Z,-3.2
2023-11-28T06:25:04.798Z,-3.2
2023-11-28T06:28:04.706Z,-3.2
2023-11-28T06:31:04.897Z,-3.2
2023-11-28T06:34:04.808Z,-3.1
2023-11-28T06:37:04.880Z,-3.0
2023-11-28T06:40:04.764Z,-3.2
2023-11-28T06:43:04.799Z,-3.0
2023-11-28T06:46:04.760Z,-3.1
2023-11-28T06:49:05.315Z,-3.3
2023-11-28T06:52:04.819Z,-3.4
2023-11-28T06:55:04.745Z,-3.4
2023-11-28T06:58:04.638Z,-3.4
2023-11-28T07:01:07.433Z,-3.5
2023-11-28T07:04:05.406Z,-3.6
2023-11-28T07:07:04.678Z,-3.5
2023-11-28T07:10:05.085Z,-3.4
2023-11-28T07:13:04.717Z,-3.6
2023-11-28T07:16:04.783Z,-3.6
2023-11-28T07:19:08.253Z,-3.6
2023-11-28T07:22:04.824Z,-3.8
2023-11-28T07:25:04.839Z,-3.8
2023-11-28T07:28:04.711Z,-3.7
2023-11-28T07:31:05.034Z,-3.5
2023-11-28T07:34:04.865Z,-3.8
2023-11-28T07:37:06.484Z,-3.8
2023-11-28T07:40:04.675Z,-3.8
2023-11-28T07:43:05.525Z,-3.7
2023-11-28T07:46:04.717Z,-3.7
2023-11-28T07:49:04.642Z,-3.6
2023-11-28T07:52:04.661Z,-3.5
2023-11-28T07:55:04.700Z,-3.5
2023-11-28T07:58:07.798Z,-3.4
2023-11-28T08:01:04.725Z,-3.6
2023-11-28T08:04:04.998Z,-3.7
2023-11-28T08:07:04.763Z,-3.7
2023-11-28T08:10:04.815Z,-3.5
2023-11-28T08:13:04.793Z,-3.7
2023-11-28T08:16:04.769Z,-3.5
2023-11-28T08:19:09.773Z,-3.3
2023-11-28T08:22:04.694Z,-3.3
2023-11-28T08:25:04.751Z,-3.4
2023-11-28T08:28:04.795Z,-2.9
2023-11-28T08:31:06.673Z,-2.9
2023-11-28T08:34:04.934Z,-3.0
2023-11-28T08:37:04.687Z,-2.8
2023-11-28T08:40:04.841Z,-2.7
2023-11-28T08:43:04.787Z,-2.8
2023-11-28T08:46:04.753Z,-2.6
2023-11-28T08:49:04.979Z,-2.7
2023-11-28T08:52:06.018Z,-2.6
2023-11-28T08:55:04.833Z,-2.9
2023-11-28T08:58:05.350Z,-2.7
2023-11-28T09:01:04.952Z,-2.7
2023-11-28T09:04:05.315Z,-2.9
2023-11-28T09:07:04.737Z,-3.0
2023-11-28T09:10:05.572Z,-2.8
2023-11-28T09:13:05.108Z,-2.7
2023-11-28T09:16:04.955Z,-2.5
2023-11-28T09:19:11.205Z,-2.8
2023-11-28T09:22:04.768Z,-2.9
2023-11-28T09:25:05.068Z,-2.9
2023-11-28T09:28:04.821Z,-2.7
2023-11-28T09:31:04.836Z,-2.8
2023-11-28T09:34:04.918Z,-2.7
2023-11-28T09:37:05.552Z,-2.7
2023-11-28T09:40:04.714Z,-2.7
2023-11-28T09:43:04.863Z,-2.7
2023-11-28T09:46:04.855Z,-2.8
2023-11-28T09:49:06.187Z,-2.8
2023-11-28T09:52:04.986Z,-2.5
2023-11-28T09:55:04.673Z,-2.3
2023-11-28T09:58:05.067Z,-2.6
2023-11-28T10:01:04.942Z,-2.8
2023-11-28T10:04:05.450Z,-2.7
2023-11-28T10:07:05.382Z,-2.6
2023-11-28T10:10:05.046Z,-2.7
2023-11-28T10:13:04.741Z,-2.9
2023-11-28T10:16:04.712Z,-2.7
2023-11-28T10:19:04.857Z,-2.7
2023-11-28T10:22:04.801Z,-2.4
2023-11-28T10:25:06.298Z,-2.4
2023-11-28T10:28:04.803Z,-2.5
2023-11-28T10:31:07.741Z,-2.6
2023-11-28T10:34:05.182Z,-2.5
2023-11-28T10:37:05.187Z,-2.6
2023-11-28T10:40:04.814Z,-2.8
2023-11-28T10:43:06.439Z,-2.4
2023-11-28T10:46:04.832Z,-2.5
2023-11-28T10:49:04.971Z,-2.2
2023-11-28T10:52:04.775Z,-2.0
2023-11-28T10:55:06.588Z,-1.6
2023-11-28T10:58:04.674Z,-1.6
2023-11-28T11:01:04.874Z,-1.4
2023-11-28T11:04:05.274Z,-1.2
2023-11-28T11:07:04.632Z,-1.1
2023-11-28T11:10:05.729Z,-1.1
2023-11-28T11:13:04.793Z,-1.5
2023-11-28T11:16:06.203Z,-1.6
2023-11-28T11:19:04.911Z,-1.4
2023-11-28T11:22:06.362Z,-1.8
2023-11-28T11:25:04.714Z,-1.7
2023-11-28T11:28:05.644Z,-1.8
2023-11-28T11:31:04.815Z,-1.6
2023-11-28T11:34:06.442Z,-1.7
2023-11-28T11:37:04.837Z,-1.6
2023-11-28T11:40:04.710Z,-1.8
2023-11-28T11:43:04.711Z,-1.6
2023-11-28T11:46:05.082Z,-1.7
2023-11-28T11:49:05.314Z,-1.9
2023-11-28T11:52:04.767Z,-1.8
2023-11-28T11:55:04.794Z,-1.9
2023-11-28T11:58:05.835Z,-1.6
2023-11-28T12:01:04.864Z,-1.9
2023-11-28T12:04:05.242Z,-1.8
2023-11-28T12:07:05.053Z,-1.6
2023-11-28T12:10:04.753Z,-1.6
2023-11-28T12:13:04.636Z,-1.8
2023-11-28T12:16:04.848Z,-1.8
2023-11-28T12:19:05.173Z,-1.7
2023-11-28T12:22:04.762Z,-1.7
2023-11-28T12:25:04.869Z,-1.6
2023-11-28T12:28:04.672Z,-1.3
2023-11-28T12:31:04.848Z,-1.7
2023-11-28T12:34:06.620Z,-1.6
2023-11-28T12:37:04.735Z,-1.8
2023-11-28T12:40:04.725Z,-1.6
2023-11-28T12:43:04.719Z,-1.7
2023-11-28T12:46:04.888Z,-1.3
2023-11-28T12:49:05.044Z,-1.3
2023-11-28T12:52:04.758Z,-1.3
2023-11-28T12:55:05.047Z,-1.8
2023-11-28T12:58:05.810Z,-1.5
2023-11-28T13:01:04.831Z,-1.6
2023-11-28T13:04:05.079Z,-1.8
2023-11-28T13:07:30.942Z,-2.2
2023-11-28T13:10:04.649Z,-2.3
2023-11-28T13:13:08.018Z,-2.3
2023-11-28T13:16:05.115Z,-2.7
2023-11-28T13:19:05.524Z,-2.9
2023-11-28T13:22:04.977Z,-2.6
2023-11-28T13:25:04.680Z,-2.5
2023-11-28T13:28:04.707Z,-2.2
2023-11-28T13:31:05.050Z,-2.1
2023-11-28T13:34:05.062Z,-2.1
2023-11-28T13:37:05.124Z,-2.3
2023-11-28T13:40:04.694Z,-2.6
2023-11-28T13:43:04.746Z,-2.7
2023-11-28T13:46:04.779Z,-2.4
2023-11-28T13:49:04.943Z,-2.4
2023-11-28T13:52:04.706Z,-2.3
2023-11-28T13:55:04.738Z,-2.3
2023-11-28T13:58:04.755Z,-2.6
2023-11-28T14:01:05.077Z,-2.5
2023-11-28T14:04:05.212Z,-2.7
2023-11-28T14:07:04.766Z,-2.7
2023-11-28T14:10:04.746Z,-2.9
2023-11-28T14:13:04.754Z,-3.1
2023-11-28T14:16:04.801Z,-2.8
2023-11-28T14:19:05.151Z,-2.8
2023-11-28T14:22:04.722Z,-2.6
2023-11-28T14:25:04.838Z,-2.3
2023-11-28T14:28:04.743Z,-2.4
2023-11-28T14:31:04.908Z,-2.3
2023-11-28T14:34:04.828Z,-2.0
2023-11-28T14:37:04.826Z,-1.9
2023-11-28T14:40:04.774Z,-2.2
2023-11-28T14:43:04.793Z,-2.2
2023-11-28T14:46:04.801Z,-2.1
2023-11-28T14:49:05.134Z,-2.2
2023-11-28T14:52:04.704Z,-2.5
2023-11-28T14:55:04.669Z,-2.0
2023-11-28T14:58:04.796Z,-2.3
2023-11-28T15:01:05.035Z,-2.4
2023-11-28T15:04:05.028Z,-2.4
2023-11-28T15:07:04.930Z,-2.5
2023-11-28T15:10:05.059Z,-2.4
2023-11-28T15:13:04.786Z,-2.3
2023-11-28T15:16:04.788Z,-2.3
2023-11-28T15:19:04.881Z,-2.3
2023-11-28T15:22:04.728Z,-2.3
2023-11-28T15:25:04.838Z,-2.3
2023-11-28T15:28:04.786Z,-2.3
2023-11-28T15:31:04.874Z,-2.3
2023-11-28T15:34:05.321Z,-2.1
2023-11-28T15:37:04.822Z,-2.1
2023-11-28T15:40:04.643Z,-2.0
2023-11-28T15:43:04.937Z,-1.9
2023-11-28T15:46:08.082Z,-1.9
2023-11-28T15:49:04.960Z,-1.9
2023-11-28T15:52:13.234Z,-1.8
2023-11-28T15:55:04.733Z,-1.8
2023-11-28T15:58:04.781Z,-1.8
2023-11-28T16:01:04.860Z,-1.9
2023-11-28T16:04:05.160Z,-1.8
2023-11-28T16:07:04.887Z,-1.8
2023-11-28T16:10:04.728Z,-1.9
2023-11-28T16:13:06.354Z,-1.9
2023-11-28T16:16:04.718Z,-1.9
2023-11-28T16:19:05.460Z,-1.9
2023-11-28T16:22:04.999Z,-1.9
2023-11-28T16:25:04.839Z,-2.1
2023-11-28T16:28:04.712Z,-2.1
2023-11-28T16:31:05.287Z,-2.2
2023-11-28T16:34:04.905Z,-2.1
2023-11-28T16:37:04.752Z,-2.1
2023-11-28T16:40:04.755Z,-2.1
2023-11-28T16:43:04.629Z,-2.0
2023-11-28T16:46:04.785Z,-2.1
2023-11-28T16:49:05.051Z,-2.1
2023-11-28T16:52:04.650Z,-2.1
2023-11-28T16:55:04.751Z,-2.2
2023-11-28T16:58:04.837Z,-2.0
2023-11-28T17:01:04.886Z,-2.0
2023-11-28T17:04:05.110Z,-1.9
2023-11-28T17:07:04.842Z,-1.7
2023-11-28T17:10:04.841Z,-1.6
2023-11-28T17:13:04.896Z,-1.6
2023-11-28T17:16:04.802Z,-1.7
2023-11-28T17:19:04.952Z,-1.9
2023-11-28T17:22:04.696Z,-2.0
2023-11-28T17:25:04.734Z,-2.0
2023-11-28T17:28:04.764Z,-1.9
2023-11-28T17:31:04.862Z,-2.1
2023-11-28T17:34:04.702Z,-2.1
2023-11-28T17:37:04.777Z,-2.1
2023-11-28T17:40:04.843Z,-2.0
2023-11-28T17:43:04.769Z,-2.1
2023-11-28T17:46:06.646Z,-2.2
2023-11-28T17:49:04.874Z,-2.2
2023-11-28T17:52:04.693Z,-2.2
2023-11-28T17:55:04.741Z,-2.2
2023-11-28T17:58:04.729Z,-2.3
2023-11-28T18:01:06.252Z,-2.3
2023-11-28T18:04:05.575Z,-2.2
2023-11-28T18:07:04.698Z,-2.3
2023-11-28T18:10:04.919Z,-2.3
2023-11-28T18:13:04.778Z,-2.4
2023-11-28T18:16:11.368Z,-2.4
2023-11-28T18:19:05.604Z,-2.3
2023-11-28T18:22:10.037Z,-2.3
2023-11-28T18:25:04.722Z,-2.4
2023-11-28T18:28:04.785Z,-2.3
2023-11-28T18:31:05.111Z,-2.2
2023-11-28T18:34:04.890Z,-2.3
2023-11-28T18:37:04.714Z,-2.4
2023-11-28T18:40:08.332Z,-2.3
2023-11-28T18:43:04.944Z,-2.3
2023-11-28T18:46:04.956Z,-2.2
2023-11-28T18:49:04.752Z,-2.2
2023-11-28T18:52:04.726Z,-2.1
2023-11-28T18:55:04.847Z,-2.0
2023-11-28T18:58:04.696Z,-2.1
2023-11-28T19:01:04.797Z,-2.0
2023-11-28T19:04:05.675Z,-2.0
2023-11-28T19:07:04.744Z,-2.0
2023-11-28T19:10:04.824Z,-2.0
2023-11-28T19:13:04.771Z,-1.9
2023-11-28T19:16:04.737Z,-2.0
2023-11-28T19:19:06.772Z,-2.0
2023-11-28T19:22:04.705Z,-2.0
2023-11-28T19:25:04.732Z,-2.0
2023-11-28T19:28:04.764Z,-1.9
2023-11-28T19:31:04.885Z,-1.9
2023-11-28T19:34:04.775Z,-2.0
2023-11-28T19:37:04.780Z,-2.0
2023-11-28T19:40:04.798Z,-2.0
2023-11-28T19:43:04.628Z,-2.0
2023-11-28T19:46:05.578Z,-2.1
2023-11-28T19:49:04.812Z,-2.0
2023-11-28T19:52:05.071Z,-2.0
2023-11-28T19:55:07.321Z,-1.9
2023-11-28T19:58:04.766Z,-2.0
2023-11-28T20:01:04.753Z,-2.0
2023-11-28T20:04:05.199Z,-2.0
2023-11-28T20:07:04.799Z,-2.0
2023-11-28T20:10:06.766Z,-2.1
2023-11-28T20:13:04.780Z,-2.0
2023-11-28T20:16:04.762Z,-2.0
2023-11-28T20:19:04.886Z,-2.0
2023-11-28T20:22:04.656Z,-2.1
2023-11-28T20:25:04.613Z,-2.1
2023-11-28T20:28:04.692Z,-1.9
2023-11-28T20:31:04.912Z,-1.8
2023-11-28T20:34:04.766Z,-2.0
2023-11-28T20:37:13.630Z,-1.9
2023-11-28T20:40:05.050Z,-1.8
2023-11-28T20:43:04.670Z,-1.7
2023-11-28T20:46:04.685Z,-1.6
2023-11-28T20:49:04.696Z,-1.6
2023-11-28T20:52:04.588Z,-1.6
2023-11-28T20:55:04.548Z,-1.5
2023-11-28T20:58:04.776Z,-1.4
2023-11-28T21:01:04.906Z,0.5
2023-11-28T21:04:04.613Z,-1.3
2023-11-28T21:07:05.283Z,-1.3
2023-11-28T21:10:04.556Z,-1.2
2023-11-28T21:13:08.121Z,-1.1
2023-11-28T21:16:04.656Z,-1.1
2023-11-28T21:19:05.083Z,-1.1
2023-11-28T21:22:04.609Z,-1.2
2023-11-28T21:25:04.659Z,-1.1
2023-11-28T21:28:04.607Z,-1.1
2023-11-28T21:31:04.954Z,-1.1
2023-11-28T21:34:04.853Z,-1.0
2023-11-28T21:37:04.611Z,-0.9
2023-11-28T21:40:04.649Z,-0.9
2023-11-28T21:46:04.618Z,-1.0
2023-11-28T21:49:11.164Z,-0.9
2023-11-28T21:52:04.716Z,-0.9
2023-11-28T21:55:04.735Z,-0.8
2023-11-28T21:58:04.712Z,-0.7
2023-11-28T22:01:04.857Z,-0.6
2023-11-28T22:04:05.561Z,-0.3
2023-11-28T22:07:04.665Z,-0.2
2023-11-28T22:10:07.159Z,-0.3
2023-11-28T22:13:04.649Z,-0.2
2023-11-28T22:16:04.841Z,-0.1
2023-11-28T22:19:04.743Z,-0.2
2023-11-28T22:22:04.641Z,-0.4
2023-11-28T22:25:04.690Z,-0.5
2023-11-28T22:28:04.680Z,-0.5
2023-11-28T22:31:04.694Z,-0.6
2023-11-28T22:34:05.137Z,-0.6
2023-11-28T22:37:04.666Z,-0.6
2023-11-28T22:40:04.668Z,-0.6
2023-11-28T22:43:04.690Z,-0.5
2023-11-28T22:46:04.726Z,-0.6
2023-11-28T22:49:05.413Z,-0.6
2023-11-28T22:52:04.665Z,-0.6
2023-11-28T22:55:04.676Z,-0.7
2023-11-28T22:58:04.611Z,-0.7
2023-11-28T23:01:05.073Z,-0.6
2023-11-28T23:04:05.204Z,-0.7
2023-11-28T23:07:04.905Z,-0.6
2023-11-28T23:10:04.877Z,-0.7
2023-11-28T23:13:06.630Z,-0.7
2023-11-28T23:16:04.732Z,-0.7
2023-11-28T23:19:04.998Z,-0.7
2023-11-28T23:22:04.833Z,-0.8
2023-11-28T23:25:04.802Z,-0.8
2023-11-28T23:28:04.812Z,-0.7
2023-11-28T23:31:05.033Z,-0.8
2023-11-28T23:34:05.028Z,-0.8
2023-11-28T23:37:04.872Z,-0.8
2023-11-28T23:40:04.876Z,-0.8
2023-11-28T23:43:12.750Z,-0.8
2023-11-28T23:46:05.023Z,-0.8
2023-11-28T23:49:05.262Z,-0.8
2023-11-28T23:52:04.777Z,-0.8
2023-11-28T23:55:04.817Z,-0.8
2023-11-28T23:58:04.866Z,-0.8
